sensor_id;sensor_type;location;lat;lon;timestamp;temperature;humidity
19000;DHT22;9633;50.980;13.850;2023-03-14T00:00:20;10.00;99.90
19000;DHT22;9633;50.980;13.850;2023-03-14T00:01:53;10.00;99.90
19000;DHT22;9633;50.980;13.850;2023-03-14T00:03:28;10.00;99.90
19000;DHT22;9633;50.980;13.850;2023-03-14T00:05:02;10.00;99.90
19000;DHT22;9633;50.980;13.850;2023-03-14T00:06:38;10.00;99.90
19000;DHT22;9633;50.980;13.850;2023-03-14T00:08:11;10.10;99.90
19000;DHT22;9633;50.980;13.850;2023-03-14T00:09:43;10.10;99.90
19000;DHT22;9633;50.980;13.850;2023-03-14T00:11:18;10.10;99.90
19000;DHT22;9633;50.980;13.850;2023-03-14T00:12:52;10.10;99.90
19000;DHT22;9633;50.980;13.850;2023-03-14T00:14:25;10.10;99.90
19000;DHT22;9633;50.980;13.850;2023-03-14T00:16:03;10.10;99.90
19000;DHT22;9633;50.980;13.850;2023-03-14T00:17:37;10.00;99.90
19000;DHT22;9633;50.980;13.850;2023-03-14T00:19:11;10.00;99.90
19000;DHT22;9633;50.980;13.850;2023-03-14T00:20:44;10.00;99.90
19000;DHT22;9633;50.980;13.850;2023-03-14T00:22:16;10.00;99.90
19000;DHT22;9633;50.980;13.850;2023-03-14T00:23:49;10.00;99.90
19000;DHT22;9633;50.980;13.850;2023-03-14T00:25:22;10.00;99.90
19000;DHT22;9633;50.980;13.850;2023-03-14T00:26:55;10.00;99.90
19000;DHT22;9633;50.980;13.850;2023-03-14T00:28:28;10.10;99.90
19000;DHT22;9633;50.980;13.850;2023-03-14T00:30:01;10.00;99.90
19000;DHT22;9633;50.980;13.850;2023-03-14T00:31:36;10.00;99.90
19000;DHT22;9633;50.980;13.850;2023-03-14T00:33:13;10.00;99.90
19000;DHT22;9633;50.980;13.850;2023-03-14T00:34:46;10.00;99.90
19000;DHT22;9633;50.980;13.850;2023-03-14T00:36:20;9.90;99.90
19000;DHT22;9633;50.980;13.850;2023-03-14T00:37:53;9.90;99.90
19000;DHT22;9633;50.980;13.850;2023-03-14T00:39:27;10.00;99.90
19000;DHT22;9633;50.980;13.850;2023-03-14T00:41:03;10.00;99.90
19000;DHT22;9633;50.980;13.850;2023-03-14T00:42:37;9.90;99.90
19000;DHT22;9633;50.980;13.850;2023-03-14T00:44:10;10.00;99.90
19000;DHT22;9633;50.980;13.850;2023-03-14T00:45:43;10.00;99.90
19000;DHT22;9633;50.980;13.850;2023-03-14T00:47:18;10.10;99.90
19000;DHT22;9633;50.980;13.850;2023-03-14T00:48:51;10.20;99.90
19000;DHT22;9633;50.980;13.850;2023-03-14T00:50:23;10.30;99.90
19000;DHT22;9633;50.980;13.850;2023-03-14T00:51:56;10.40;99.90
19000;DHT22;9633;50.980;13.850;2023-03-14T00:53:30;10.40;99.90
19000;DHT22;9633;50.980;13.850;2023-03-14T00:55:04;10.40;99.90
19000;DHT22;9633;50.980;13.850;2023-03-14T00:56:37;10.40;99.90
19000;DHT22;9633;50.980;13.850;2023-03-14T00:58:11;10.30;99.90
19000;DHT22;9633;50.980;13.850;2023-03-14T00:59:45;10.30;99.90
19000;DHT22;9633;50.980;13.850;2023-03-14T01:01:18;10.50;99.90
19000;DHT22;9633;50.980;13.850;2023-03-14T01:02:53;10.70;99.90
19000;DHT22;9633;50.980;13.850;2023-03-14T01:04:28;10.80;99.90
19000;DHT22;9633;50.980;13.850;2023-03-14T01:06:13;11.00;99.90
19000;DHT22;9633;50.980;13.850;2023-03-14T01:07:47;11.00;99.90
19000;DHT22;9633;50.980;13.850;2023-03-14T01:09:20;11.20;99.90
19000;DHT22;9633;50.980;13.850;2023-03-14T01:10:53;11.20;99.90
19000;DHT22;9633;50.980;13.850;2023-03-14T01:12:27;11.20;99.90
19000;DHT22;9633;50.980;13.850;2023-03-14T01:14:01;11.20;99.90
19000;DHT22;9633;50.980;13.850;2023-03-14T01:15:35;11.30;99.90
19000;DHT22;9633;50.980;13.850;2023-03-14T01:17:09;11.30;99.90
19000;DHT22;9633;50.980;13.850;2023-03-14T01:18:44;11.30;99.90
19000;DHT22;9633;50.980;13.850;2023-03-14T01:20:18;11.30;99.90
19000;DHT22;9633;50.980;13.850;2023-03-14T01:21:51;11.40;99.90
19000;DHT22;9633;50.980;13.850;2023-03-14T01:23:24;11.30;99.90
19000;DHT22;9633;50.980;13.850;2023-03-14T01:24:57;11.30;99.90
19000;DHT22;9633;50.980;13.850;2023-03-14T01:26:32;11.40;99.90
19000;DHT22;9633;50.980;13.850;2023-03-14T01:28:05;11.40;99.90
19000;DHT22;9633;50.980;13.850;2023-03-14T01:29:39;11.40;99.90
19000;DHT22;9633;50.980;13.850;2023-03-14T01:31:13;11.40;99.90
19000;DHT22;9633;50.980;13.850;2023-03-14T01:32:46;11.40;99.90
19000;DHT22;9633;50.980;13.850;2023-03-14T01:34:21;11.40;99.90
19000;DHT22;9633;50.980;13.850;2023-03-14T01:35:54;11.30;99.90
19000;DHT22;9633;50.980;13.850;2023-03-14T01:37:27;11.30;99.90
19000;DHT22;9633;50.980;13.850;2023-03-14T01:39:01;11.30;99.90
19000;DHT22;9633;50.980;13.850;2023-03-14T01:40:40;11.20;99.90
19000;DHT22;9633;50.980;13.850;2023-03-14T01:42:14;11.20;99.90
19000;DHT22;9633;50.980;13.850;2023-03-14T01:43:48;11.20;99.90
19000;DHT22;9633;50.980;13.850;2023-03-14T01:47:31;11.30;99.90
19000;DHT22;9633;50.980;13.850;2023-03-14T01:49:15;11.30;99.90
19000;DHT22;9633;50.980;13.850;2023-03-14T01:50:53;11.40;99.90
19000;DHT22;9633;50.980;13.850;2023-03-14T01:52:29;11.40;99.90
19000;DHT22;9633;50.980;13.850;2023-03-14T01:54:11;11.40;99.90
19000;DHT22;9633;50.980;13.850;2023-03-14T01:55:45;11.40;99.90
19000;DHT22;9633;50.980;13.850;2023-03-14T01:57:20;11.40;99.90
19000;DHT22;9633;50.980;13.850;2023-03-14T01:58:55;11.40;99.90
19000;DHT22;9633;50.980;13.850;2023-03-14T02:00:27;11.40;99.90
19000;DHT22;9633;50.980;13.850;2023-03-14T02:03:42;11.50;99.90
19000;DHT22;9633;50.980;13.850;2023-03-14T02:05:18;11.40;99.90
19000;DHT22;9633;50.980;13.850;2023-03-14T02:07:04;11.40;99.90
19000;DHT22;9633;50.980;13.850;2023-03-14T02:08:43;11.40;99.90
19000;DHT22;9633;50.980;13.850;2023-03-14T02:10:25;11.40;99.90
19000;DHT22;9633;50.980;13.850;2023-03-14T02:12:01;11.40;99.90
19000;DHT22;9633;50.980;13.850;2023-03-14T02:13:48;11.40;99.90
19000;DHT22;9633;50.980;13.850;2023-03-14T02:15:36;11.40;99.90
19000;DHT22;9633;50.980;13.850;2023-03-14T02:17:17;11.30;99.90
19000;DHT22;9633;50.980;13.850;2023-03-14T02:19:11;11.20;99.90
19000;DHT22;9633;50.980;13.850;2023-03-14T02:21:02;11.10;99.90
19000;DHT22;9633;50.980;13.850;2023-03-14T02:22:40;11.00;99.90
19000;DHT22;9633;50.980;13.850;2023-03-14T02:24:19;11.00;99.90
19000;DHT22;9633;50.980;13.850;2023-03-14T02:26:07;11.00;99.90
19000;DHT22;9633;50.980;13.850;2023-03-14T02:27:43;11.00;99.90
19000;DHT22;9633;50.980;13.850;2023-03-14T02:29:18;11.00;99.90
19000;DHT22;9633;50.980;13.850;2023-03-14T02:30:51;10.90;99.90
19000;DHT22;9633;50.980;13.850;2023-03-14T02:32:27;10.90;99.90
19000;DHT22;9633;50.980;13.850;2023-03-14T02:34:01;10.90;99.90
19000;DHT22;9633;50.980;13.850;2023-03-14T02:35:39;10.80;99.90
19000;DHT22;9633;50.980;13.850;2023-03-14T02:37:14;10.70;99.90
19000;DHT22;9633;50.980;13.850;2023-03-14T02:38:53;10.50;99.90
19000;DHT22;9633;50.980;13.850;2023-03-14T02:40:30;10.40;99.90
19000;DHT22;9633;50.980;13.850;2023-03-14T02:42:03;10.20;99.90
19000;DHT22;9633;50.980;13.850;2023-03-14T02:43:37;10.00;99.90
19000;DHT22;9633;50.980;13.850;2023-03-14T02:45:40;9.80;99.90
19000;DHT22;9633;50.980;13.850;2023-03-14T02:47:13;9.80;99.90
19000;DHT22;9633;50.980;13.850;2023-03-14T02:48:49;9.80;99.90
19000;DHT22;9633;50.980;13.850;2023-03-14T02:50:26;9.70;99.90
19000;DHT22;9633;50.980;13.850;2023-03-14T02:52:02;9.60;99.90
19000;DHT22;9633;50.980;13.850;2023-03-14T02:53:36;9.60;99.90
19000;DHT22;9633;50.980;13.850;2023-03-14T02:55:14;9.60;99.90
19000;DHT22;9633;50.980;13.850;2023-03-14T02:56:49;9.70;99.90
19000;DHT22;9633;50.980;13.850;2023-03-14T02:58:23;9.80;99.90
19000;DHT22;9633;50.980;13.850;2023-03-14T03:00:04;10.10;99.90
19000;DHT22;9633;50.980;13.850;2023-03-14T03:01:40;10.10;99.90
19000;DHT22;9633;50.980;13.850;2023-03-14T03:03:13;10.00;99.90
19000;DHT22;9633;50.980;13.850;2023-03-14T03:04:47;10.00;99.90
19000;DHT22;9633;50.980;13.850;2023-03-14T03:06:21;9.90;99.90
19000;DHT22;9633;50.980;13.850;2023-03-14T03:07:55;9.90;99.90
19000;DHT22;9633;50.980;13.850;2023-03-14T03:09:29;10.10;99.90
19000;DHT22;9633;50.980;13.850;2023-03-14T03:11:02;10.40;99.90
19000;DHT22;9633;50.980;13.850;2023-03-14T03:12:37;10.50;99.90
19000;DHT22;9633;50.980;13.850;2023-03-14T03:14:10;11.00;99.90
19000;DHT22;9633;50.980;13.850;2023-03-14T03:15:45;11.30;99.90
19000;DHT22;9633;50.980;13.850;2023-03-14T03:17:18;11.50;99.90
19000;DHT22;9633;50.980;13.850;2023-03-14T03:18:51;11.80;99.90
19000;DHT22;9633;50.980;13.850;2023-03-14T03:20:25;11.80;99.90
19000;DHT22;9633;50.980;13.850;2023-03-14T03:21:57;11.90;99.90
19000;DHT22;9633;50.980;13.850;2023-03-14T03:23:30;12.10;99.90
19000;DHT22;9633;50.980;13.850;2023-03-14T03:25:06;12.00;99.90
19000;DHT22;9633;50.980;13.850;2023-03-14T03:26:39;11.90;99.90
19000;DHT22;9633;50.980;13.850;2023-03-14T03:28:14;11.80;99.90
19000;DHT22;9633;50.980;13.850;2023-03-14T03:29:48;11.80;99.90
19000;DHT22;9633;50.980;13.850;2023-03-14T03:31:21;11.80;99.90
19000;DHT22;9633;50.980;13.850;2023-03-14T03:32:54;11.80;99.90
19000;DHT22;9633;50.980;13.850;2023-03-14T03:34:27;11.70;99.90
19000;DHT22;9633;50.980;13.850;2023-03-14T03:36:01;11.70;99.90
19000;DHT22;9633;50.980;13.850;2023-03-14T03:37:38;11.70;99.90
19000;DHT22;9633;50.980;13.850;2023-03-14T03:39:11;11.70;99.90
19000;DHT22;9633;50.980;13.850;2023-03-14T03:40:44;11.60;99.90
19000;DHT22;9633;50.980;13.850;2023-03-14T03:42:18;11.50;99.90
19000;DHT22;9633;50.980;13.850;2023-03-14T03:43:51;11.50;99.90
19000;DHT22;9633;50.980;13.850;2023-03-14T03:45:24;11.40;99.90
19000;DHT22;9633;50.980;13.850;2023-03-14T03:47:01;11.40;99.90
19000;DHT22;9633;50.980;13.850;2023-03-14T03:48:35;11.60;99.90
19000;DHT22;9633;50.980;13.850;2023-03-14T03:50:10;11.50;99.90
19000;DHT22;9633;50.980;13.850;2023-03-14T03:51:43;11.40;99.90
19000;DHT22;9633;50.980;13.850;2023-03-14T03:53:16;11.40;99.90
19000;DHT22;9633;50.980;13.850;2023-03-14T03:55:05;11.40;99.90
19000;DHT22;9633;50.980;13.850;2023-03-14T03:56:38;11.50;99.90
19000;DHT22;9633;50.980;13.850;2023-03-14T03:58:11;11.30;99.90
19000;DHT22;9633;50.980;13.850;2023-03-14T03:59:44;11.10;99.90
19000;DHT22;9633;50.980;13.850;2023-03-14T04:01:17;11.10;99.90
19000;DHT22;9633;50.980;13.850;2023-03-14T04:02:55;11.00;99.90
19000;DHT22;9633;50.980;13.850;2023-03-14T04:04:28;10.80;99.90
19000;DHT22;9633;50.980;13.850;2023-03-14T04:06:02;10.60;99.90
19000;DHT22;9633;50.980;13.850;2023-03-14T04:07:38;10.80;99.90
19000;DHT22;9633;50.980;13.850;2023-03-14T04:09:11;11.20;99.90
19000;DHT22;9633;50.980;13.850;2023-03-14T04:10:48;11.20;99.90
19000;DHT22;9633;50.980;13.850;2023-03-14T04:12:26;11.40;99.90
19000;DHT22;9633;50.980;13.850;2023-03-14T04:14:19;11.40;99.90
19000;DHT22;9633;50.980;13.850;2023-03-14T04:15:59;11.20;99.90
19000;DHT22;9633;50.980;13.850;2023-03-14T04:17:33;11.10;99.90
19000;DHT22;9633;50.980;13.850;2023-03-14T04:19:07;11.30;99.90
19000;DHT22;9633;50.980;13.850;2023-03-14T04:20:41;11.30;99.90
19000;DHT22;9633;50.980;13.850;2023-03-14T04:22:15;11.40;99.90
19000;DHT22;9633;50.980;13.850;2023-03-14T04:23:54;11.60;99.90
19000;DHT22;9633;50.980;13.850;2023-03-14T04:25:28;11.50;99.90
19000;DHT22;9633;50.980;13.850;2023-03-14T04:27:02;11.50;99.90
19000;DHT22;9633;50.980;13.850;2023-03-14T04:28:37;11.50;99.90
19000;DHT22;9633;50.980;13.850;2023-03-14T04:30:11;11.70;99.90
19000;DHT22;9633;50.980;13.850;2023-03-14T04:32:03;11.70;99.90
19000;DHT22;9633;50.980;13.850;2023-03-14T04:33:36;11.80;99.90
19000;DHT22;9633;50.980;13.850;2023-03-14T04:35:10;11.70;99.90
19000;DHT22;9633;50.980;13.850;2023-03-14T04:36:43;11.70;99.90
19000;DHT22;9633;50.980;13.850;2023-03-14T04:38:22;11.50;99.90
19000;DHT22;9633;50.980;13.850;2023-03-14T04:39:56;11.40;99.90
19000;DHT22;9633;50.980;13.850;2023-03-14T04:41:31;11.30;99.90
19000;DHT22;9633;50.980;13.850;2023-03-14T04:43:04;11.50;99.90
19000;DHT22;9633;50.980;13.850;2023-03-14T04:44:38;11.50;99.90
19000;DHT22;9633;50.980;13.850;2023-03-14T04:46:11;11.50;99.90
19000;DHT22;9633;50.980;13.850;2023-03-14T04:47:45;11.50;99.90
19000;DHT22;9633;50.980;13.850;2023-03-14T04:49:22;11.60;99.90
19000;DHT22;9633;50.980;13.850;2023-03-14T04:50:57;11.60;99.90
19000;DHT22;9633;50.980;13.850;2023-03-14T04:52:33;11.50;99.90
19000;DHT22;9633;50.980;13.850;2023-03-14T04:54:07;11.50;99.90
19000;DHT22;9633;50.980;13.850;2023-03-14T04:55:41;11.60;99.90
19000;DHT22;9633;50.980;13.850;2023-03-14T04:57:14;11.60;99.90
19000;DHT22;9633;50.980;13.850;2023-03-14T04:58:47;11.60;99.90
19000;DHT22;9633;50.980;13.850;2023-03-14T05:00:22;11.40;99.90
19000;DHT22;9633;50.980;13.850;2023-03-14T05:02:14;11.40;99.90
19000;DHT22;9633;50.980;13.850;2023-03-14T05:03:59;11.50;99.90
19000;DHT22;9633;50.980;13.850;2023-03-14T05:06:00;11.40;99.90
19000;DHT22;9633;50.980;13.850;2023-03-14T05:07:42;11.40;99.90
19000;DHT22;9633;50.980;13.850;2023-03-14T05:09:34;11.40;99.90
19000;DHT22;9633;50.980;13.850;2023-03-14T05:11:30;11.40;99.90
19000;DHT22;9633;50.980;13.850;2023-03-14T05:13:15;11.40;99.90
19000;DHT22;9633;50.980;13.850;2023-03-14T05:15:08;11.30;99.90
19000;DHT22;9633;50.980;13.850;2023-03-14T05:17:04;11.20;99.90
19000;DHT22;9633;50.980;13.850;2023-03-14T05:19:04;11.10;99.90
19000;DHT22;9633;50.980;13.850;2023-03-14T05:21:10;11.20;99.90
19000;DHT22;9633;50.980;13.850;2023-03-14T05:22:44;11.10;99.90
19000;DHT22;9633;50.980;13.850;2023-03-14T05:24:37;11.00;99.90
19000;DHT22;9633;50.980;13.850;2023-03-14T05:26:40;11.10;99.90
19000;DHT22;9633;50.980;13.850;2023-03-14T05:28:25;11.20;99.90
19000;DHT22;9633;50.980;13.850;2023-03-14T05:30:28;11.20;99.90
19000;DHT22;9633;50.980;13.850;2023-03-14T05:32:15;11.20;99.90
19000;DHT22;9633;50.980;13.850;2023-03-14T05:34:14;11.20;99.90
19000;DHT22;9633;50.980;13.850;2023-03-14T05:36:10;11.20;99.90
19000;DHT22;9633;50.980;13.850;2023-03-14T05:38:06;11.20;99.90
19000;DHT22;9633;50.980;13.850;2023-03-14T05:39:50;11.30;99.90
19000;DHT22;9633;50.980;13.850;2023-03-14T05:41:37;11.30;99.90
19000;DHT22;9633;50.980;13.850;2023-03-14T05:43:28;11.30;99.90
19000;DHT22;9633;50.980;13.850;2023-03-14T05:45:37;11.40;99.90
19000;DHT22;9633;50.980;13.850;2023-03-14T05:47:21;11.20;99.90
19000;DHT22;9633;50.980;13.850;2023-03-14T05:49:03;11.40;99.90
19000;DHT22;9633;50.980;13.850;2023-03-14T05:50:59;11.40;99.90
19000;DHT22;9633;50.980;13.850;2023-03-14T05:52:51;11.30;99.90
19000;DHT22;9633;50.980;13.850;2023-03-14T05:54:43;11.30;99.90
19000;DHT22;9633;50.980;13.850;2023-03-14T05:56:52;11.30;99.90
19000;DHT22;9633;50.980;13.850;2023-03-14T05:58:48;11.30;99.90
19000;DHT22;9633;50.980;13.850;2023-03-14T06:00:33;11.20;99.90
19000;DHT22;9633;50.980;13.850;2023-03-14T06:02:19;11.20;99.90
19000;DHT22;9633;50.980;13.850;2023-03-14T06:04:01;11.20;99.90
19000;DHT22;9633;50.980;13.850;2023-03-14T06:05:35;11.20;99.90
19000;DHT22;9633;50.980;13.850;2023-03-14T06:07:08;11.10;99.90
19000;DHT22;9633;50.980;13.850;2023-03-14T06:08:43;11.00;99.90
19000;DHT22;9633;50.980;13.850;2023-03-14T06:10:16;10.90;99.90
19000;DHT22;9633;50.980;13.850;2023-03-14T06:11:49;10.90;99.90
19000;DHT22;9633;50.980;13.850;2023-03-14T06:13:22;10.90;99.90
19000;DHT22;9633;50.980;13.850;2023-03-14T06:14:56;10.80;99.90
19000;DHT22;9633;50.980;13.850;2023-03-14T06:16:29;10.90;99.90
19000;DHT22;9633;50.980;13.850;2023-03-14T06:18:04;11.00;99.90
19000;DHT22;9633;50.980;13.850;2023-03-14T06:19:38;11.10;99.90
19000;DHT22;9633;50.980;13.850;2023-03-14T06:21:12;11.00;99.90
19000;DHT22;9633;50.980;13.850;2023-03-14T06:22:47;11.00;99.90
19000;DHT22;9633;50.980;13.850;2023-03-14T06:24:22;11.00;99.90
19000;DHT22;9633;50.980;13.850;2023-03-14T06:25:56;11.00;99.90
19000;DHT22;9633;50.980;13.850;2023-03-14T06:27:30;10.90;99.90
19000;DHT22;9633;50.980;13.850;2023-03-14T06:29:03;10.80;99.90
19000;DHT22;9633;50.980;13.850;2023-03-14T06:30:38;10.80;99.90
19000;DHT22;9633;50.980;13.850;2023-03-14T06:32:14;10.70;99.90
19000;DHT22;9633;50.980;13.850;2023-03-14T06:33:47;10.70;99.90
19000;DHT22;9633;50.980;13.850;2023-03-14T06:35:21;10.70;99.90
19000;DHT22;9633;50.980;13.850;2023-03-14T06:36:54;10.80;99.90
19000;DHT22;9633;50.980;13.850;2023-03-14T06:38:27;10.80;99.90
19000;DHT22;9633;50.980;13.850;2023-03-14T06:40:04;10.90;99.90
19000;DHT22;9633;50.980;13.850;2023-03-14T06:41:53;11.00;99.90
19000;DHT22;9633;50.980;13.850;2023-03-14T06:43:27;10.90;99.90
19000;DHT22;9633;50.980;13.850;2023-03-14T06:45:00;10.80;99.90
19000;DHT22;9633;50.980;13.850;2023-03-14T06:46:34;10.80;99.90
19000;DHT22;9633;50.980;13.850;2023-03-14T06:48:07;10.70;99.90
19000;DHT22;9633;50.980;13.850;2023-03-14T06:49:53;10.80;99.90
19000;DHT22;9633;50.980;13.850;2023-03-14T06:51:27;10.80;99.90
19000;DHT22;9633;50.980;13.850;2023-03-14T06:53:00;10.80;99.90
19000;DHT22;9633;50.980;13.850;2023-03-14T06:54:33;10.90;99.90
19000;DHT22;9633;50.980;13.850;2023-03-14T06:56:09;11.00;99.90
19000;DHT22;9633;50.980;13.850;2023-03-14T06:57:42;11.10;99.90
19000;DHT22;9633;50.980;13.850;2023-03-14T06:59:16;11.20;99.90
19000;DHT22;9633;50.980;13.850;2023-03-14T07:00:53;11.30;99.90
19000;DHT22;9633;50.980;13.850;2023-03-14T07:02:30;11.40;99.90
19000;DHT22;9633;50.980;13.850;2023-03-14T07:04:22;11.40;99.90
19000;DHT22;9633;50.980;13.850;2023-03-14T07:05:56;11.30;99.90
19000;DHT22;9633;50.980;13.850;2023-03-14T07:07:30;11.30;99.90
19000;DHT22;9633;50.980;13.850;2023-03-14T07:09:04;11.30;99.90
19000;DHT22;9633;50.980;13.850;2023-03-14T07:10:39;11.30;99.90
19000;DHT22;9633;50.980;13.850;2023-03-14T07:12:15;11.20;99.90
19000;DHT22;9633;50.980;13.850;2023-03-14T07:13:48;11.20;99.90
19000;DHT22;9633;50.980;13.850;2023-03-14T07:15:21;11.10;99.90
19000;DHT22;9633;50.980;13.850;2023-03-14T07:17:00;11.10;99.90
19000;DHT22;9633;50.980;13.850;2023-03-14T07:18:33;11.10;99.90
19000;DHT22;9633;50.980;13.850;2023-03-14T07:20:10;11.00;99.90
19000;DHT22;9633;50.980;13.850;2023-03-14T07:21:43;11.00;99.90
19000;DHT22;9633;50.980;13.850;2023-03-14T07:23:18;11.00;99.90
19000;DHT22;9633;50.980;13.850;2023-03-14T07:24:55;11.00;99.90
19000;DHT22;9633;50.980;13.850;2023-03-14T07:26:29;11.00;99.90
19000;DHT22;9633;50.980;13.850;2023-03-14T07:28:05;11.10;99.90
19000;DHT22;9633;50.980;13.850;2023-03-14T07:29:38;11.10;99.90
19000;DHT22;9633;50.980;13.850;2023-03-14T07:31:12;11.10;99.90
19000;DHT22;9633;50.980;13.850;2023-03-14T07:32:46;11.20;99.90
19000;DHT22;9633;50.980;13.850;2023-03-14T07:34:20;11.20;99.90
19000;DHT22;9633;50.980;13.850;2023-03-14T07:35:53;11.20;99.90
19000;DHT22;9633;50.980;13.850;2023-03-14T07:37:27;11.20;99.90
19000;DHT22;9633;50.980;13.850;2023-03-14T07:39:01;11.20;99.90
19000;DHT22;9633;50.980;13.850;2023-03-14T07:40:45;11.20;99.90
19000;DHT22;9633;50.980;13.850;2023-03-14T07:42:18;11.20;99.90
19000;DHT22;9633;50.980;13.850;2023-03-14T07:44:26;11.20;99.90
19000;DHT22;9633;50.980;13.850;2023-03-14T07:45:59;11.20;99.90
19000;DHT22;9633;50.980;13.850;2023-03-14T07:47:32;11.30;99.90
19000;DHT22;9633;50.980;13.850;2023-03-14T07:49:05;11.30;99.90
19000;DHT22;9633;50.980;13.850;2023-03-14T07:50:38;11.20;99.90
19000;DHT22;9633;50.980;13.850;2023-03-14T07:52:11;11.30;99.90
19000;DHT22;9633;50.980;13.850;2023-03-14T07:53:45;11.30;99.90
19000;DHT22;9633;50.980;13.850;2023-03-14T07:55:18;11.30;99.90
19000;DHT22;9633;50.980;13.850;2023-03-14T07:56:51;11.30;99.90
19000;DHT22;9633;50.980;13.850;2023-03-14T07:58:24;11.30;99.90
19000;DHT22;9633;50.980;13.850;2023-03-14T07:59:59;11.40;99.90
19000;DHT22;9633;50.980;13.850;2023-03-14T08:01:32;11.40;99.90
19000;DHT22;9633;50.980;13.850;2023-03-14T08:03:06;11.50;99.90
19000;DHT22;9633;50.980;13.850;2023-03-14T08:04:39;11.60;99.90
19000;DHT22;9633;50.980;13.850;2023-03-14T08:06:12;11.70;99.90
19000;DHT22;9633;50.980;13.850;2023-03-14T08:07:45;11.80;99.90
19000;DHT22;9633;50.980;13.850;2023-03-14T08:09:19;12.00;99.90
19000;DHT22;9633;50.980;13.850;2023-03-14T08:10:52;12.10;99.90
19000;DHT22;9633;50.980;13.850;2023-03-14T08:12:25;12.40;99.90
19000;DHT22;9633;50.980;13.850;2023-03-14T08:13:58;12.40;99.90
19000;DHT22;9633;50.980;13.850;2023-03-14T08:15:33;12.60;99.90
19000;DHT22;9633;50.980;13.850;2023-03-14T08:17:06;12.70;99.90
19000;DHT22;9633;50.980;13.850;2023-03-14T08:18:40;12.60;99.90
19000;DHT22;9633;50.980;13.850;2023-03-14T08:20:13;12.60;99.90
19000;DHT22;9633;50.980;13.850;2023-03-14T08:21:46;12.40;99.90
19000;DHT22;9633;50.980;13.850;2023-03-14T08:23:19;12.50;99.90
19000;DHT22;9633;50.980;13.850;2023-03-14T08:24:52;12.60;99.90
19000;DHT22;9633;50.980;13.850;2023-03-14T08:26:26;12.70;99.90
19000;DHT22;9633;50.980;13.850;2023-03-14T08:27:59;12.80;99.90
19000;DHT22;9633;50.980;13.850;2023-03-14T08:29:32;12.90;99.90
19000;DHT22;9633;50.980;13.850;2023-03-14T08:31:07;13.00;99.90
19000;DHT22;9633;50.980;13.850;2023-03-14T08:32:41;13.10;99.90
19000;DHT22;9633;50.980;13.850;2023-03-14T08:34:14;13.10;99.90
19000;DHT22;9633;50.980;13.850;2023-03-14T08:35:47;13.10;99.90
19000;DHT22;9633;50.980;13.850;2023-03-14T08:37:21;13.00;99.90
19000;DHT22;9633;50.980;13.850;2023-03-14T08:38:58;13.00;99.90
19000;DHT22;9633;50.980;13.850;2023-03-14T08:40:31;13.00;99.90
19000;DHT22;9633;50.980;13.850;2023-03-14T08:42:05;13.10;99.90
19000;DHT22;9633;50.980;13.850;2023-03-14T08:43:38;13.10;99.90
19000;DHT22;9633;50.980;13.850;2023-03-14T08:45:13;13.20;99.90
19000;DHT22;9633;50.980;13.850;2023-03-14T08:46:47;13.10;99.90
19000;DHT22;9633;50.980;13.850;2023-03-14T08:48:21;13.20;99.90
19000;DHT22;9633;50.980;13.850;2023-03-14T08:49:54;13.30;99.90
19000;DHT22;9633;50.980;13.850;2023-03-14T08:51:28;13.40;99.90
19000;DHT22;9633;50.980;13.850;2023-03-14T08:53:01;13.60;99.90
19000;DHT22;9633;50.980;13.850;2023-03-14T08:54:34;13.80;99.90
19000;DHT22;9633;50.980;13.850;2023-03-14T08:56:09;13.70;99.90
19000;DHT22;9633;50.980;13.850;2023-03-14T08:57:42;13.60;99.90
19000;DHT22;9633;50.980;13.850;2023-03-14T08:59:15;13.50;99.90
19000;DHT22;9633;50.980;13.850;2023-03-14T09:00:49;13.50;99.90
19000;DHT22;9633;50.980;13.850;2023-03-14T09:02:25;13.50;99.90
19000;DHT22;9633;50.980;13.850;2023-03-14T09:03:58;13.40;99.90
19000;DHT22;9633;50.980;13.850;2023-03-14T09:05:33;13.50;99.90
19000;DHT22;9633;50.980;13.850;2023-03-14T09:07:06;13.40;99.90
19000;DHT22;9633;50.980;13.850;2023-03-14T09:08:39;13.40;99.90
19000;DHT22;9633;50.980;13.850;2023-03-14T09:10:12;13.50;99.90
19000;DHT22;9633;50.980;13.850;2023-03-14T09:11:46;13.40;99.90
19000;DHT22;9633;50.980;13.850;2023-03-14T09:13:19;13.40;99.90
19000;DHT22;9633;50.980;13.850;2023-03-14T09:14:52;13.40;99.90
19000;DHT22;9633;50.980;13.850;2023-03-14T09:16:26;13.40;99.90
19000;DHT22;9633;50.980;13.850;2023-03-14T09:18:00;13.40;99.90
19000;DHT22;9633;50.980;13.850;2023-03-14T09:19:35;13.40;99.90
19000;DHT22;9633;50.980;13.850;2023-03-14T09:21:08;13.40;99.90
19000;DHT22;9633;50.980;13.850;2023-03-14T09:22:42;13.30;99.90
19000;DHT22;9633;50.980;13.850;2023-03-14T09:24:15;13.40;99.90
19000;DHT22;9633;50.980;13.850;2023-03-14T09:25:53;13.50;99.90
19000;DHT22;9633;50.980;13.850;2023-03-14T09:27:26;13.60;99.90
19000;DHT22;9633;50.980;13.850;2023-03-14T09:28:59;13.60;99.90
19000;DHT22;9633;50.980;13.850;2023-03-14T09:30:33;13.60;99.90
19000;DHT22;9633;50.980;13.850;2023-03-14T09:32:06;13.70;99.90
19000;DHT22;9633;50.980;13.850;2023-03-14T09:33:43;13.80;99.90
19000;DHT22;9633;50.980;13.850;2023-03-14T09:35:17;13.90;99.90
19000;DHT22;9633;50.980;13.850;2023-03-14T09:36:50;13.80;99.90
19000;DHT22;9633;50.980;13.850;2023-03-14T09:38:23;13.70;99.90
19000;DHT22;9633;50.980;13.850;2023-03-14T09:39:57;13.70;99.90
19000;DHT22;9633;50.980;13.850;2023-03-14T09:41:33;13.70;99.90
19000;DHT22;9633;50.980;13.850;2023-03-14T09:43:10;13.70;99.90
19000;DHT22;9633;50.980;13.850;2023-03-14T09:44:53;13.60;99.90
19000;DHT22;9633;50.980;13.850;2023-03-14T09:46:28;13.50;99.90
19000;DHT22;9633;50.980;13.850;2023-03-14T09:48:02;13.50;99.90
19000;DHT22;9633;50.980;13.850;2023-03-14T09:49:40;13.50;99.90
19000;DHT22;9633;50.980;13.850;2023-03-14T09:51:16;13.40;99.90
19000;DHT22;9633;50.980;13.850;2023-03-14T09:52:53;13.30;99.90
19000;DHT22;9633;50.980;13.850;2023-03-14T09:54:34;13.30;99.90
19000;DHT22;9633;50.980;13.850;2023-03-14T09:56:12;13.20;99.90
19000;DHT22;9633;50.980;13.850;2023-03-14T09:57:48;13.20;99.90
19000;DHT22;9633;50.980;13.850;2023-03-14T09:59:21;13.20;99.90
19000;DHT22;9633;50.980;13.850;2023-03-14T10:00:56;13.20;99.90
19000;DHT22;9633;50.980;13.850;2023-03-14T10:02:35;13.10;99.90
19000;DHT22;9633;50.980;13.850;2023-03-14T10:04:12;13.10;99.90
19000;DHT22;9633;50.980;13.850;2023-03-14T10:05:49;13.10;99.90
19000;DHT22;9633;50.980;13.850;2023-03-14T10:07:27;13.10;99.90
19000;DHT22;9633;50.980;13.850;2023-03-14T10:09:01;13.10;99.90
19000;DHT22;9633;50.980;13.850;2023-03-14T10:10:35;13.00;99.90
19000;DHT22;9633;50.980;13.850;2023-03-14T10:12:09;13.00;99.90
19000;DHT22;9633;50.980;13.850;2023-03-14T10:14:01;13.00;99.90
19000;DHT22;9633;50.980;13.850;2023-03-14T10:15:39;13.00;99.90